createdAt,value
2022-08-14T00:00:17.818Z,14.20
2022-08-14T00:03:18.601Z,14.70
2022-08-14T00:05:58.198Z,13.90
2022-08-14T00:08:45.031Z,14.30
2022-08-14T00:11:17.612Z,13.90
2022-08-14T00:13:52.697Z,14.10
2022-08-14T00:16:40.815Z,14.10
2022-08-14T00:19:19.487Z,13.40
2022-08-14T00:21:54.222Z,13.50
2022-08-14T00:24:30.926Z,14.10
2022-08-14T00:27:03.084Z,14.10
2022-08-14T00:29:40.393Z,13.50
2022-08-14T00:32:50.254Z,13.50
2022-08-14T00:37:46.484Z,12.20
2022-08-14T00:40:33.368Z,12.90
2022-08-14T00:43:08.282Z,14.10
2022-08-14T00:45:41.013Z,13.20
2022-08-14T00:48:13.681Z,13.70
2022-08-14T00:51:07.727Z,12.40
2022-08-14T00:53:43.095Z,13.70
2022-08-14T00:56:16.168Z,13.20
2022-08-14T00:58:48.708Z,13.40
2022-08-14T01:01:20.830Z,13.60
2022-08-14T01:03:55.684Z,12.80
2022-08-14T01:06:30.204Z,13.50
2022-08-14T01:09:06.623Z,12.30
2022-08-14T01:11:41.546Z,12.80
2022-08-14T01:14:25.526Z,12.70
2022-08-14T01:17:00.569Z,12.90
2022-08-14T01:19:53.142Z,12.80
2022-08-14T01:22:26.709Z,13.50
2022-08-14T01:24:59.238Z,13.00
2022-08-14T01:27:31.485Z,13.30
2022-08-14T01:30:24.985Z,12.80
2022-08-14T01:32:57.627Z,12.40
2022-08-14T01:36:03.545Z,12.80
2022-08-14T01:40:54.411Z,12.60
2022-08-14T01:43:30.670Z,13.10
2022-08-14T01:46:11.646Z,13.40
2022-08-14T01:48:57.556Z,12.50
2022-08-14T01:51:32.449Z,12.70
2022-08-14T01:54:09.855Z,12.50
2022-08-14T01:56:46.300Z,11.90
2022-08-14T01:59:37.496Z,11.70
2022-08-14T02:02:19.762Z,12.10
2022-08-14T02:04:57.218Z,12.10
2022-08-14T02:07:44.751Z,10.70
2022-08-14T02:10:26.322Z,11.60
2022-08-14T02:13:00.687Z,11.30
2022-08-14T02:15:33.742Z,12.20
2022-08-14T02:18:07.311Z,11.80
2022-08-14T02:20:39.940Z,12.30
2022-08-14T02:23:12.256Z,12.20
2022-08-14T02:25:44.485Z,12.20
2022-08-14T02:28:57.584Z,11.70
2022-08-14T02:31:20.041Z,12.00
2022-08-14T02:34:01.092Z,11.90
2022-08-14T02:37:04.220Z,12.30
2022-08-14T02:42:04.486Z,11.60
2022-08-14T02:44:39.734Z,11.50
2022-08-14T02:47:15.204Z,11.80
2022-08-14T02:49:56.748Z,10.70
2022-08-14T02:53:07.484Z,11.70
2022-08-14T02:55:21.735Z,11.20
2022-08-14T02:57:58.003Z,11.60
2022-08-14T03:00:39.984Z,11.10
2022-08-14T03:03:12.720Z,11.10
2022-08-14T03:05:45.174Z,11.60
2022-08-14T03:08:18.983Z,10.10
2022-08-14T03:10:52.114Z,10.30
2022-08-14T03:13:24.179Z,10.20
2022-08-14T03:15:57.879Z,10.80
2022-08-14T03:18:31.197Z,10.50
2022-08-14T03:21:07.907Z,10.60
2022-08-14T03:23:40.714Z,11.00
2022-08-14T03:26:18.299Z,10.80
2022-08-14T03:29:01.606Z,10.60
2022-08-14T03:31:34.354Z,9.50
2022-08-14T03:34:10.175Z,10.20
2022-08-14T03:37:51.008Z,11.00
2022-08-14T03:39:49.755Z,10.30
2022-08-14T03:42:25.379Z,10.70
2022-08-14T03:45:18.536Z,11.30
2022-08-14T03:48:04.141Z,10.40
2022-08-14T03:50:44.371Z,10.60
2022-08-14T03:53:20.726Z,10.80
2022-08-14T03:55:59.200Z,10.90
2022-08-14T03:58:36.237Z,10.70
2022-08-14T04:01:09.219Z,9.40
2022-08-14T04:03:41.484Z,10.80
2022-08-14T04:06:14.248Z,11.30
2022-08-14T04:08:53.486Z,11.20
2022-08-14T04:11:30.304Z,11.30
2022-08-14T04:14:02.286Z,11.30
2022-08-14T04:16:37.759Z,10.80
2022-08-14T04:19:11.785Z,11.70
2022-08-14T04:22:02.503Z,11.20
2022-08-14T04:24:38.974Z,11.00
2022-08-14T04:27:13.464Z,10.90
2022-08-14T04:29:49.156Z,10.30
2022-08-14T04:33:01.291Z,11.20
2022-08-14T04:35:23.508Z,11.10
2022-08-14T04:38:36.925Z,10.50
2022-08-14T04:41:22.869Z,10.50
2022-08-14T04:43:55.482Z,10.20
2022-08-14T04:46:56.823Z,11.10
2022-08-14T04:49:21.832Z,11.40
2022-08-14T04:51:56.461Z,11.70
2022-08-14T04:54:28.961Z,11.00
2022-08-14T04:57:01.320Z,10.20
2022-08-14T04:59:35.371Z,12.00
2022-08-14T05:02:08.330Z,11.30
2022-08-14T05:04:45.383Z,10.90
2022-08-14T05:07:46.850Z,11.00
2022-08-14T05:10:26.107Z,11.00
2022-08-14T05:13:12.780Z,10.10
2022-08-14T05:15:47.934Z,9.80
2022-08-14T05:19:16.770Z,10.30
2022-08-14T05:21:59.945Z,10.00
2022-08-14T05:24:07.392Z,10.30
2022-08-14T05:26:49.884Z,10.10
2022-08-14T05:29:23.745Z,10.50
2022-08-14T05:31:58.238Z,10.40
2022-08-14T05:34:32.006Z,10.40
2022-08-14T05:37:06.687Z,10.80
2022-08-14T05:39:40.889Z,10.20
2022-08-14T05:42:22.327Z,11.10
2022-08-14T05:45:01.276Z,9.50
2022-08-14T05:47:33.956Z,10.50
2022-08-14T05:50:17.510Z,9.90
2022-08-14T05:52:52.535Z,10.60
2022-08-14T05:55:24.950Z,10.50
2022-08-14T05:57:59.961Z,10.00
2022-08-14T06:00:37.020Z,9.40
2022-08-14T06:03:12.472Z,9.80
2022-08-14T06:05:45.707Z,8.90
2022-08-14T06:08:31.186Z,9.20
2022-08-14T06:11:10.439Z,8.90
2022-08-14T06:13:47.783Z,8.80
2022-08-14T06:16:22.129Z,8.90
2022-08-14T06:19:03.851Z,9.20
2022-08-14T06:21:40.505Z,9.20
2022-08-14T06:24:18.905Z,9.60
2022-08-14T06:26:54.233Z,9.70
2022-08-14T06:29:32.349Z,10.10
2022-08-14T06:32:37.474Z,9.00
2022-08-14T06:35:02.592Z,9.20
2022-08-14T06:37:48.966Z,8.40
2022-08-14T06:40:28.028Z,9.20
2022-08-14T06:43:03.667Z,9.20
2022-08-14T06:45:37.033Z,9.00
2022-08-14T06:48:18.400Z,8.90
2022-08-14T06:50:54.854Z,9.40
2022-08-14T06:53:28.140Z,9.40
2022-08-14T06:56:02.034Z,9.90
2022-08-14T06:58:34.688Z,9.60
2022-08-14T07:01:35.923Z,10.00
2022-08-14T07:04:25.419Z,10.80
2022-08-14T07:06:59.114Z,10.20
2022-08-14T07:09:43.773Z,9.90
2022-08-14T07:12:56.695Z,9.70
2022-08-14T07:15:15.806Z,11.20
2022-08-14T07:17:52.069Z,10.70
2022-08-14T07:20:31.108Z,11.50
2022-08-14T07:23:08.456Z,12.10
2022-08-14T07:25:43.663Z,12.60
2022-08-14T07:28:20.542Z,11.90
2022-08-14T07:31:04.744Z,12.20
2022-08-14T07:33:42.081Z,12.30
2022-08-14T07:36:27.090Z,12.20
2022-08-14T07:39:13.157Z,12.40
2022-08-14T07:41:45.588Z,12.60
2022-08-14T07:44:32.209Z,12.60
2022-08-14T07:47:08.549Z,12.30
2022-08-14T07:49:43.499Z,13.00
2022-08-14T07:52:22.240Z,12.50
2022-08-14T07:55:05.041Z,12.90
2022-08-14T07:57:38.746Z,12.20
2022-08-14T08:00:31.593Z,11.90
2022-08-14T08:03:10.323Z,11.80
2022-08-14T08:05:44.275Z,12.10
2022-08-14T08:08:27.120Z,12.00
2022-08-14T08:11:08.902Z,11.60
2022-08-14T08:13:54.439Z,11.30
2022-08-14T08:16:27.648Z,11.00
2022-08-14T08:19:12.449Z,11.50
2022-08-14T08:21:47.053Z,10.70
2022-08-14T08:24:20.733Z,11.70
2022-08-14T08:26:53.247Z,11.40
2022-08-14T08:29:29.111Z,11.30
2022-08-14T08:32:05.859Z,11.10
2022-08-14T08:34:48.559Z,11.30
2022-08-14T08:37:21.994Z,10.80
2022-08-14T08:40:02.297Z,11.30
2022-08-14T08:42:41.457Z,10.40
2022-08-14T08:45:19.925Z,11.10
2022-08-14T08:47:57.824Z,11.40
2022-08-14T08:53:11.916Z,11.40
2022-08-14T08:55:46.590Z,10.50
2022-08-14T08:58:25.021Z,11.80
2022-08-14T09:01:02.356Z,11.10
2022-08-14T09:03:40.419Z,11.50
2022-08-14T09:06:53.974Z,10.90
2022-08-14T09:09:20.530Z,10.40
2022-08-14T09:11:54.956Z,10.20
2022-08-14T09:14:29.719Z,11.00
2022-08-14T09:17:03.718Z,11.40
2022-08-14T09:19:37.578Z,10.40
2022-08-14T09:22:34.811Z,9.90
2022-08-14T09:25:03.975Z,9.80
2022-08-14T09:27:40.734Z,9.70
2022-08-14T09:30:33.051Z,9.60
2022-08-14T09:33:23.258Z,10.00
2022-08-14T09:36:13.609Z,8.80
2022-08-14T09:38:55.615Z,10.30
2022-08-14T09:42:21.621Z,9.60
2022-08-14T09:44:51.875Z,9.40
2022-08-14T09:47:43.264Z,9.10
2022-08-14T09:50:31.376Z,9.20
2022-08-14T09:53:11.078Z,8.20
2022-08-14T09:56:01.120Z,9.40
2022-08-14T09:58:41.459Z,9.10
2022-08-14T10:01:17.027Z,9.10
2022-08-14T10:03:55.400Z,9.40
2022-08-14T10:06:29.830Z,9.90
2022-08-14T10:09:12.118Z,9.50
2022-08-14T10:11:59.688Z,9.60
2022-08-14T10:14:36.950Z,8.60
2022-08-14T10:17:12.060Z,8.80
2022-08-14T10:19:51.976Z,9.20
2022-08-14T10:23:12.709Z,9.40
2022-08-14T10:25:22.798Z,9.30
2022-08-14T10:28:01.146Z,8.60
2022-08-14T10:30:37.897Z,8.90
2022-08-14T10:33:10.127Z,9.60
2022-08-14T10:35:48.009Z,9.30
2022-08-14T10:38:31.980Z,8.90
2022-08-14T10:41:15.034Z,9.20
2022-08-14T10:44:06.251Z,8.70
2022-08-14T10:47:40.916Z,8.30
2022-08-14T10:49:38.067Z,8.90
2022-08-14T10:52:14.363Z,9.60
2022-08-14T10:54:48.653Z,8.30
2022-08-14T10:57:30.433Z,8.10
2022-08-14T11:00:13.749Z,8.90
2022-08-14T11:03:02.629Z,8.80
2022-08-14T11:05:43.854Z,5.30
2022-08-14T11:08:17.471Z,5.00
2022-08-14T11:10:52.690Z,5.90
2022-08-14T11:13:27.410Z,5.40
2022-08-14T11:16:02.652Z,5.10
2022-08-14T11:18:35.978Z,5.80
2022-08-14T11:21:15.390Z,4.00
2022-08-14T11:23:49.415Z,4.70
2022-08-14T11:26:30.175Z,3.80
2022-08-14T11:29:05.897Z,3.40
2022-08-14T11:31:39.381Z,3.90
2022-08-14T11:34:31.890Z,4.30
2022-08-14T11:37:22.872Z,4.30
2022-08-14T11:40:16.245Z,5.10
2022-08-14T11:43:07.845Z,5.20
2022-08-14T11:45:41.678Z,5.20
2022-08-14T11:49:02.359Z,5.50
2022-08-14T11:51:24.096Z,6.50
2022-08-14T11:54:01.706Z,6.30
2022-08-14T11:56:39.867Z,6.00
2022-08-14T11:59:19.869Z,6.30
2022-08-14T12:01:58.752Z,6.10
2022-08-14T12:04:33.801Z,6.50
2022-08-14T12:07:10.061Z,5.70
2022-08-14T12:09:43.170Z,5.50
2022-08-14T12:12:35.136Z,4.00
2022-08-14T12:15:10.351Z,3.60
2022-08-14T12:17:50.667Z,4.80
2022-08-14T12:20:32.946Z,3.40
2022-08-14T12:23:06.212Z,3.40
2022-08-14T12:25:38.328Z,3.00
2022-08-14T12:28:27.463Z,1.70
2022-08-14T12:31:20.736Z,2.70
2022-08-14T12:34:03.770Z,3.00
2022-08-14T12:36:42.985Z,3.20
2022-08-14T12:39:23.806Z,4.00
2022-08-14T12:42:06.540Z,3.40
2022-08-14T12:44:40.117Z,4.80
2022-08-14T12:47:17.869Z,4.60
2022-08-14T12:49:57.743Z,5.50
2022-08-14T12:52:43.207Z,5.50
2022-08-14T12:55:32.402Z,5.90
2022-08-14T12:58:35.215Z,5.00
2022-08-14T13:01:20.522Z,5.60
2022-08-14T13:03:53.862Z,5.40
2022-08-14T13:06:29.583Z,5.80
2022-08-14T13:09:03.090Z,5.30
2022-08-14T13:11:45.633Z,5.10
2022-08-14T13:14:26.455Z,4.80
2022-08-14T13:17:04.038Z,4.60
2022-08-14T13:19:40.812Z,5.00
2022-08-14T13:22:29.042Z,4.90
2022-08-14T13:25:07.055Z,4.90
2022-08-14T13:27:40.604Z,5.40
2022-08-14T13:30:23.625Z,5.80
2022-08-14T13:32:59.105Z,6.00
2022-08-14T13:35:32.032Z,5.20
2022-08-14T13:38:05.702Z,5.50
2022-08-14T13:40:40.929Z,6.10
2022-08-14T13:43:17.703Z,7.10
2022-08-14T13:46:00.447Z,7.30
2022-08-14T13:51:13.489Z,6.80
2022-08-14T13:54:07.139Z,7.40
2022-08-14T13:56:43.731Z,7.50
2022-08-14T13:59:28.448Z,7.10
2022-08-14T14:02:31.756Z,8.30
2022-08-14T14:05:08.683Z,8.30
2022-08-14T14:07:47.515Z,8.80
2022-08-14T14:10:29.120Z,8.90
2022-08-14T14:13:03.664Z,9.70
2022-08-14T14:15:48.642Z,9.90
2022-08-14T14:18:34.913Z,9.50
2022-08-14T14:21:09.193Z,9.50
2022-08-14T14:23:45.997Z,9.20
2022-08-14T14:26:24.589Z,9.30
2022-08-14T14:29:00.353Z,8.00
2022-08-14T14:31:34.068Z,8.00
2022-08-14T14:34:19.910Z,8.10
2022-08-14T14:37:06.243Z,9.60
2022-08-14T14:40:53.667Z,9.40
2022-08-14T14:42:37.638Z,9.10
2022-08-14T14:45:18.105Z,10.10
2022-08-14T14:47:59.098Z,8.70
2022-08-14T14:50:33.069Z,8.40
2022-08-14T14:53:12.759Z,8.30
2022-08-14T14:56:46.880Z,7.80
2022-08-14T14:58:40.129Z,7.60
2022-08-14T15:01:14.478Z,8.40
2022-08-14T15:03:46.826Z,8.10
2022-08-14T15:06:19.991Z,7.70
2022-08-14T15:08:55.764Z,7.10
2022-08-14T15:11:30.199Z,7.30
2022-08-14T15:14:02.774Z,6.70
2022-08-14T15:16:55.011Z,5.80
2022-08-14T15:19:32.134Z,6.00
2022-08-14T15:22:06.534Z,6.00
2022-08-14T15:24:42.910Z,6.00
2022-08-14T15:27:26.361Z,6.10
2022-08-14T15:29:59.281Z,5.50
2022-08-14T15:32:33.869Z,5.70
2022-08-14T15:35:07.696Z,5.60
2022-08-14T15:37:42.294Z,5.80
2022-08-14T15:40:22.057Z,5.80
2022-08-14T15:42:54.726Z,5.80
2022-08-14T15:45:28.179Z,6.40
2022-08-14T15:48:00.714Z,5.70
2022-08-14T15:50:32.863Z,6.10
2022-08-14T15:53:04.834Z,6.40
2022-08-14T15:55:37.742Z,6.20
2022-08-14T15:58:13.184Z,6.10
2022-08-14T16:01:04.631Z,6.20
2022-08-14T16:03:40.940Z,6.80
2022-08-14T16:06:18.100Z,6.90
2022-08-14T16:08:58.900Z,6.30
2022-08-14T16:11:33.483Z,6.60
2022-08-14T16:14:09.308Z,6.60
2022-08-14T16:16:51.510Z,6.00
2022-08-14T16:19:33.183Z,6.80
2022-08-14T16:22:57.290Z,5.40
2022-08-14T16:25:15.576Z,6.40
2022-08-14T16:27:51.455Z,6.10
2022-08-14T16:30:26.239Z,5.90
2022-08-14T16:33:00.990Z,6.50
2022-08-14T16:35:43.303Z,6.30
2022-08-14T16:38:45.425Z,6.70
2022-08-14T16:41:26.525Z,6.50
2022-08-14T16:44:02.424Z,6.50
2022-08-14T16:46:43.577Z,6.40
2022-08-14T16:49:17.621Z,6.70
2022-08-14T16:51:52.952Z,6.60
2022-08-14T16:54:35.015Z,6.00
2022-08-14T16:57:22.544Z,6.50
2022-08-14T16:59:59.058Z,6.80
2022-08-14T17:02:41.904Z,6.20
2022-08-14T17:05:26.988Z,6.60
2022-08-14T17:08:31.605Z,6.60
2022-08-14T17:11:11.096Z,6.50
2022-08-14T17:13:58.298Z,6.70
2022-08-14T17:16:37.275Z,7.60
2022-08-14T17:19:14.243Z,7.50
2022-08-14T17:21:53.588Z,7.50
2022-08-14T17:24:51.507Z,7.50
2022-08-14T17:27:24.061Z,7.00
2022-08-14T17:29:58.000Z,6.40
2022-08-14T17:32:56.139Z,5.80
2022-08-14T17:35:57.749Z,6.10
2022-08-14T17:38:39.113Z,6.70
2022-08-14T17:41:23.829Z,7.00
2022-08-14T17:44:12.463Z,7.30
2022-08-14T17:46:50.295Z,6.80
2022-08-14T17:49:32.269Z,7.70
2022-08-14T17:52:16.552Z,7.00
2022-08-14T17:55:00.527Z,7.20
2022-08-14T17:57:35.195Z,7.20
2022-08-14T18:00:12.424Z,8.10
2022-08-14T18:02:50.708Z,8.10
2022-08-14T18:06:07.534Z,7.70
2022-08-14T18:08:34.396Z,7.50
2022-08-14T18:11:16.815Z,5.70
2022-08-14T18:13:52.664Z,6.10
2022-08-14T18:16:29.897Z,6.40
2022-08-14T18:19:04.527Z,6.60
2022-08-14T18:21:56.175Z,6.40
2022-08-14T18:27:09.083Z,5.90
2022-08-14T18:29:55.410Z,5.90
2022-08-14T18:32:47.186Z,6.30
2022-08-14T18:35:21.422Z,5.80
2022-08-14T18:38:25.913Z,6.00
2022-08-14T18:41:36.639Z,5.80
2022-08-14T18:44:12.980Z,6.20
2022-08-14T18:47:19.252Z,5.90
2022-08-14T18:50:26.551Z,6.10
2022-08-14T18:53:11.027Z,6.00
2022-08-14T18:55:53.250Z,6.50
2022-08-14T18:58:31.360Z,6.60
2022-08-14T19:01:06.792Z,6.30
2022-08-14T19:03:48.439Z,5.80
2022-08-14T19:06:20.709Z,5.90
2022-08-14T19:08:53.920Z,6.90
2022-08-14T19:11:51.466Z,5.60
2022-08-14T19:14:48.498Z,6.90
2022-08-14T19:18:15.134Z,7.40
2022-08-14T19:20:54.300Z,6.60
2022-08-14T19:23:43.054Z,7.00
2022-08-14T19:26:35.406Z,6.50
2022-08-14T19:29:39.777Z,6.90
2022-08-14T19:32:40.381Z,6.60
2022-08-14T19:35:49.816Z,6.40
2022-08-14T19:38:51.758Z,6.40
2022-08-14T19:41:29.701Z,6.70
2022-08-14T19:44:14.910Z,6.40
2022-08-14T19:47:02.588Z,6.60
2022-08-14T19:50:07.976Z,6.90
2022-08-14T19:52:37.408Z,6.30
2022-08-14T19:55:19.687Z,6.90
2022-08-14T19:57:58.790Z,6.20
2022-08-14T20:00:31.997Z,6.70
2022-08-14T20:03:10.741Z,7.00
2022-08-14T20:05:46.725Z,6.00
2022-08-14T20:11:01.207Z,5.90
2022-08-14T20:11:58.497Z,5.80
2022-08-14T20:14:29.736Z,6.10
2022-08-14T20:17:06.731Z,5.60
2022-08-14T20:19:41.823Z,6.20
2022-08-14T20:22:37.018Z,6.80
2022-08-14T20:25:18.447Z,4.90
2022-08-14T20:27:59.462Z,4.50
2022-08-14T20:30:35.950Z,4.60
2022-08-14T20:33:11.644Z,6.90
2022-08-14T20:35:50.375Z,7.30
2022-08-14T20:38:29.234Z,7.10
2022-08-14T20:41:09.539Z,6.80
2022-08-14T20:44:02.783Z,5.70
2022-08-14T20:46:42.391Z,6.20
2022-08-14T20:49:18.525Z,6.30
2022-08-14T20:52:04.819Z,6.30
2022-08-14T20:54:50.394Z,5.90
2022-08-14T20:57:24.044Z,7.00
2022-08-14T20:59:56.598Z,6.80
2022-08-14T21:02:46.419Z,6.30
2022-08-14T21:05:33.794Z,6.90
2022-08-14T21:08:21.896Z,6.80
2022-08-14T21:10:56.795Z,6.60
2022-08-14T21:14:25.193Z,6.50
2022-08-14T21:16:33.500Z,6.40
2022-08-14T21:19:08.574Z,6.60
2022-08-14T21:21:42.412Z,6.30
2022-08-14T21:24:40.054Z,6.20
2022-08-14T21:27:20.457Z,5.90
2022-08-14T21:29:56.273Z,6.80
2022-08-14T21:32:47.248Z,6.40
2022-08-14T21:35:30.103Z,7.00
2022-08-14T21:38:02.865Z,7.70
2022-08-14T21:40:42.204Z,6.60
2022-08-14T21:43:20.227Z,7.20
2022-08-14T21:45:58.169Z,7.00
2022-08-14T21:48:36.136Z,7.10
2022-08-14T21:51:53.866Z,6.40
2022-08-14T21:54:01.389Z,7.50
2022-08-14T21:56:41.130Z,7.40
2022-08-14T21:59:31.953Z,7.60
2022-08-14T22:02:07.634Z,7.30
2022-08-14T22:04:41.674Z,6.80
2022-08-14T22:07:18.057Z,7.50
2022-08-14T22:09:54.655Z,7.50
2022-08-14T22:12:58.630Z,7.40
2022-08-14T22:15:22.381Z,7.10
2022-08-14T22:17:55.097Z,8.20
2022-08-14T22:20:29.256Z,8.00
2022-08-14T22:23:04.710Z,7.90
2022-08-14T22:25:41.230Z,9.10
2022-08-14T22:28:17.949Z,5.60
2022-08-14T22:30:54.685Z,4.80
2022-08-14T22:33:31.175Z,5.30
2022-08-14T22:36:26.156Z,6.10
2022-08-14T22:38:58.691Z,8.50
2022-08-14T22:41:42.784Z,7.30
2022-08-14T22:44:17.904Z,7.30
2022-08-14T22:46:50.890Z,7.80
2022-08-14T22:50:28.920Z,7.00
2022-08-14T22:52:32.140Z,5.80
2022-08-14T22:55:08.085Z,5.90
2022-08-14T22:57:43.661Z,7.60
2022-08-14T23:00:25.500Z,5.90
2022-08-14T23:03:17.432Z,4.90
2022-08-14T23:05:54.595Z,5.80
2022-08-14T23:08:56.775Z,11.70
2022-08-14T23:13:50.475Z,5.40
2022-08-14T23:16:24.221Z,4.40
2022-08-14T23:18:56.682Z,5.30
2022-08-14T23:21:30.574Z,5.30
2022-08-14T23:24:06.107Z,10.90
2022-08-14T23:26:48.613Z,10.00
2022-08-14T23:29:25.008Z,9.00
2022-08-14T23:31:59.211Z,7.90
2022-08-14T23:34:31.412Z,9.60
2022-08-14T23:37:04.717Z,7.50
2022-08-14T23:39:39.132Z,11.50
2022-08-14T23:42:13.489Z,7.90
2022-08-14T23:44:50.428Z,9.50
2022-08-14T23:47:27.735Z,8.00
2022-08-14T23:50:04.052Z,7.20
2022-08-14T23:52:50.626Z,7.80
2022-08-14T23:55:35.013Z,8.90
2022-08-14T23:58:07.772Z,10.90
